createdAt,value
2018-11-26T00:00:50.105Z,87.89
2018-11-26T00:03:18.351Z,88.45
2018-11-26T00:05:46.633Z,87.53
2018-11-26T00:08:14.849Z,87.42
2018-11-26T00:11:21.890Z,87.46
2018-11-26T00:13:50.134Z,88.09
2018-11-26T00:16:18.410Z,87.77
2018-11-26T00:18:46.705Z,87.57
2018-11-26T00:21:14.891Z,87.50
2018-11-26T00:23:43.107Z,87.56
2018-11-26T00:26:11.386Z,87.73
2018-11-26T00:28:39.610Z,87.60
2018-11-26T00:31:07.894Z,87.62
2018-11-26T00:33:36.106Z,87.67
2018-11-26T00:36:04.318Z,87.80
2018-11-26T00:38:32.592Z,87.60
2018-11-26T00:41:00.848Z,87.65
2018-11-26T00:43:29.225Z,87.94
2018-11-26T00:45:57.475Z,87.80
2018-11-26T00:48:25.755Z,88.03
2018-11-26T00:50:53.971Z,88.26
2018-11-26T00:53:22.226Z,88.52
2018-11-26T00:55:50.568Z,88.54
2018-11-26T00:58:18.832Z,88.56
2018-11-26T01:00:47.062Z,88.41
2018-11-26T01:03:15.330Z,88.54
2018-11-26T01:05:43.615Z,88.60
2018-11-26T01:08:11.883Z,88.65
2018-11-26T01:10:40.149Z,88.68
2018-11-26T01:13:08.605Z,88.74
2018-11-26T01:15:36.837Z,88.53
2018-11-26T01:18:05.738Z,88.39
2018-11-26T01:20:34.005Z,88.42
2018-11-26T01:23:02.255Z,88.18
2018-11-26T01:25:30.505Z,87.99
2018-11-26T01:27:58.770Z,88.13
2018-11-26T01:30:27.015Z,87.91
2018-11-26T01:32:55.291Z,88.12
2018-11-26T01:35:23.551Z,88.13
2018-11-26T01:37:51.783Z,88.29
2018-11-26T01:40:21.363Z,88.35
2018-11-26T01:42:49.892Z,88.33
2018-11-26T01:45:18.148Z,88.30
2018-11-26T01:47:46.392Z,88.53
2018-11-26T01:50:14.667Z,88.60
2018-11-26T01:52:42.912Z,88.67
2018-11-26T01:55:11.428Z,88.59
2018-11-26T01:57:39.697Z,88.53
2018-11-26T02:00:27.506Z,88.81
2018-11-26T02:02:55.781Z,88.91
2018-11-26T02:05:24.159Z,88.69
2018-11-26T02:07:52.405Z,88.59
2018-11-26T02:10:21.027Z,88.61
2018-11-26T02:12:49.296Z,88.71
2018-11-26T02:15:37.439Z,88.75
2018-11-26T02:18:05.818Z,89.27
2018-11-26T02:20:34.157Z,88.92
2018-11-26T02:23:02.383Z,89.32
2018-11-26T02:25:30.644Z,89.08
2018-11-26T02:27:58.858Z,89.40
2018-11-26T02:30:27.131Z,89.45
2018-11-26T02:32:55.398Z,89.53
2018-11-26T02:35:23.683Z,89.44
2018-11-26T02:37:52.808Z,89.40
2018-11-26T02:40:40.476Z,89.40
2018-11-26T02:43:08.720Z,89.42
2018-11-26T02:45:36.969Z,89.61
2018-11-26T02:48:05.630Z,89.70
2018-11-26T02:50:33.900Z,89.54
2018-11-26T02:53:02.185Z,89.84
2018-11-26T02:55:49.833Z,89.73
2018-11-26T02:58:18.084Z,89.69
2018-11-26T03:00:47.073Z,89.55
2018-11-26T03:03:16.069Z,89.66
2018-11-26T03:05:44.376Z,89.55
2018-11-26T03:08:12.627Z,89.58
2018-11-26T03:10:40.892Z,89.63
2018-11-26T03:13:09.113Z,89.54
2018-11-26T03:15:37.441Z,89.53
2018-11-26T03:18:05.660Z,89.58
2018-11-26T03:20:33.909Z,89.45
2018-11-26T03:23:02.176Z,89.69
2018-11-26T03:25:30.420Z,89.71
2018-11-26T03:27:58.662Z,89.61
2018-11-26T03:30:26.938Z,89.60
2018-11-26T03:32:55.168Z,89.79
2018-11-26T03:35:23.388Z,89.73
2018-11-26T03:37:51.673Z,89.62
2018-11-26T03:40:19.921Z,89.80
2018-11-26T03:42:48.172Z,89.93
2018-11-26T03:45:19.517Z,90.33
2018-11-26T03:47:47.704Z,90.11
2018-11-26T03:50:15.933Z,90.14
2018-11-26T03:52:44.739Z,90.08
2018-11-26T03:55:13.469Z,90.00
2018-11-26T03:57:41.780Z,90.27
2018-11-26T04:00:14.427Z,90.44
2018-11-26T04:02:42.700Z,90.54
2018-11-26T04:05:11.386Z,90.44
2018-11-26T04:07:39.695Z,90.49
2018-11-26T04:10:11.932Z,90.39
2018-11-26T04:12:40.214Z,90.22
2018-11-26T04:15:10.225Z,90.51
2018-11-26T04:17:38.503Z,90.48
2018-11-26T04:20:07.719Z,90.33
2018-11-26T04:22:35.974Z,90.22
2018-11-26T04:25:04.466Z,90.20
2018-11-26T04:27:32.739Z,90.09
2018-11-26T04:30:01.019Z,90.04
2018-11-26T04:32:29.293Z,90.06
2018-11-26T04:34:57.528Z,89.94
2018-11-26T04:37:25.799Z,89.85
2018-11-26T04:39:54.036Z,89.82
2018-11-26T04:42:22.269Z,89.79
2018-11-26T04:44:50.513Z,89.67
2018-11-26T04:47:18.790Z,89.55
2018-11-26T04:49:47.023Z,89.47
2018-11-26T04:52:15.275Z,89.38
2018-11-26T04:54:51.076Z,89.26
2018-11-26T04:57:19.305Z,89.25
2018-11-26T04:59:47.550Z,89.01
2018-11-26T05:02:15.853Z,88.89
2018-11-26T05:04:44.080Z,88.62
2018-11-26T05:07:12.305Z,88.62
2018-11-26T05:09:40.550Z,88.40
2018-11-26T05:12:08.874Z,88.30
2018-11-26T05:14:37.107Z,88.15
2018-11-26T05:17:05.632Z,88.00
2018-11-26T05:19:33.908Z,87.97
2018-11-26T05:22:02.151Z,87.81
2018-11-26T05:24:30.413Z,87.63
2018-11-26T05:26:58.642Z,87.62
2018-11-26T05:29:26.914Z,87.62
2018-11-26T05:31:55.159Z,87.55
2018-11-26T05:34:23.391Z,87.56
2018-11-26T05:36:51.757Z,87.59
2018-11-26T05:39:20.008Z,87.61
2018-11-26T05:41:48.238Z,87.54
2018-11-26T05:44:16.933Z,87.65
2018-11-26T05:46:45.158Z,87.71
2018-11-26T05:49:13.417Z,87.84
2018-11-26T05:51:41.662Z,87.72
2018-11-26T05:54:09.943Z,87.89
2018-11-26T05:56:38.161Z,88.01
2018-11-26T05:59:06.441Z,88.23
2018-11-26T06:01:34.667Z,88.09
2018-11-26T06:04:02.943Z,88.08
2018-11-26T06:06:31.168Z,88.03
2018-11-26T06:08:59.412Z,88.42
2018-11-26T06:11:27.631Z,88.40
2018-11-26T06:13:55.864Z,88.44
2018-11-26T06:16:24.094Z,88.48
2018-11-26T06:18:52.336Z,88.46
2018-11-26T06:21:20.576Z,88.64
2018-11-26T06:23:48.869Z,88.79
2018-11-26T06:26:36.478Z,88.77
2018-11-26T06:29:04.729Z,89.09
2018-11-26T06:31:32.961Z,88.92
2018-11-26T06:34:01.237Z,88.80
2018-11-26T06:36:29.487Z,88.78
2018-11-26T06:38:57.712Z,88.82
2018-11-26T06:41:25.986Z,88.96
2018-11-26T06:43:54.232Z,88.93
2018-11-26T06:46:22.469Z,88.94
2018-11-26T06:48:50.716Z,88.83
2018-11-26T06:51:18.976Z,88.96
2018-11-26T06:53:47.270Z,89.00
2018-11-26T06:56:15.499Z,89.02
2018-11-26T06:58:43.744Z,88.98
2018-11-26T07:01:12.101Z,89.09
2018-11-26T07:03:40.335Z,89.10
2018-11-26T07:06:08.601Z,89.08
2018-11-26T07:08:36.833Z,89.03
2018-11-26T07:11:05.333Z,89.01
2018-11-26T07:13:33.586Z,89.01
2018-11-26T07:16:01.857Z,88.90
2018-11-26T07:18:30.070Z,89.02
2018-11-26T07:20:58.339Z,89.05
2018-11-26T07:23:26.576Z,89.07
2018-11-26T07:25:54.824Z,89.04
2018-11-26T07:28:23.071Z,89.08
2018-11-26T07:30:51.348Z,89.10
2018-11-26T07:33:19.780Z,89.19
2018-11-26T07:35:48.028Z,89.33
2018-11-26T07:38:16.282Z,89.26
2018-11-26T07:40:44.532Z,89.29
2018-11-26T07:43:13.965Z,89.25
2018-11-26T07:45:42.228Z,89.12
2018-11-26T07:48:11.530Z,89.08
2018-11-26T07:50:39.888Z,89.15
2018-11-26T07:53:09.422Z,89.15
2018-11-26T07:55:38.359Z,89.04
2018-11-26T07:58:06.665Z,88.98
2018-11-26T08:00:34.913Z,88.99
2018-11-26T08:03:03.187Z,88.95
2018-11-26T08:05:31.424Z,88.95
2018-11-26T08:07:59.686Z,88.92
2018-11-26T08:10:27.897Z,88.85
2018-11-26T08:12:56.229Z,88.72
2018-11-26T08:15:25.475Z,88.59
2018-11-26T08:17:53.778Z,88.84
2018-11-26T08:20:22.033Z,88.78
2018-11-26T08:22:50.289Z,88.53
2018-11-26T08:25:20.043Z,88.54
2018-11-26T08:27:48.979Z,88.75
2018-11-26T08:30:36.678Z,88.63
2018-11-26T08:33:05.295Z,88.70
2018-11-26T08:35:33.537Z,88.41
2018-11-26T08:38:20.873Z,88.35
2018-11-26T08:40:49.717Z,88.45
2018-11-26T08:43:37.088Z,88.53
2018-11-26T08:46:24.442Z,88.43
2018-11-26T08:49:11.819Z,88.67
2018-11-26T08:51:40.451Z,88.69
2018-11-26T08:54:08.703Z,88.37
2018-11-26T08:56:36.928Z,88.28
2018-11-26T08:59:05.547Z,88.24
2018-11-26T09:01:42.235Z,88.08
2018-11-26T09:04:10.513Z,87.83
2018-11-26T09:06:38.996Z,88.22
2018-11-26T09:09:26.773Z,87.93
2018-11-26T09:11:54.926Z,87.81
2018-11-26T09:14:23.202Z,88.29
2018-11-26T09:16:51.424Z,88.51
2018-11-26T09:19:19.678Z,88.15
2018-11-26T09:21:48.064Z,88.20
2018-11-26T09:24:16.204Z,88.20
2018-11-26T09:26:44.426Z,87.92
2018-11-26T09:29:13.251Z,88.09
2018-11-26T09:31:40.931Z,88.01
2018-11-26T09:34:09.168Z,87.85
2018-11-26T09:36:37.410Z,87.79
2018-11-26T09:39:10.115Z,87.91
2018-11-26T09:41:38.855Z,87.54
2018-11-26T09:44:07.466Z,87.25
2018-11-26T09:46:36.331Z,87.42
2018-11-26T09:49:04.593Z,87.58
2018-11-26T09:51:32.871Z,87.55
2018-11-26T09:54:01.098Z,87.34
2018-11-26T09:56:29.364Z,87.18
2018-11-26T09:58:57.649Z,86.93
2018-11-26T10:01:25.884Z,86.83
2018-11-26T10:03:54.135Z,86.43
2018-11-26T10:06:22.400Z,86.83
2018-11-26T10:08:50.612Z,86.31
2018-11-26T10:11:18.883Z,86.04
2018-11-26T10:13:47.137Z,86.51
2018-11-26T10:16:15.411Z,86.51
2018-11-26T10:18:43.652Z,86.57
2018-11-26T10:21:11.944Z,86.44
2018-11-26T10:23:40.194Z,86.66
2018-11-26T10:26:08.474Z,86.18
2018-11-26T10:28:36.722Z,85.79
2018-11-26T10:31:05.007Z,84.85
2018-11-26T10:33:33.266Z,85.04
2018-11-26T10:36:01.484Z,85.70
2018-11-26T10:38:29.723Z,84.99
2018-11-26T10:40:57.952Z,85.48
2018-11-26T10:43:26.195Z,84.24
2018-11-26T10:45:54.472Z,83.53
2018-11-26T10:48:22.719Z,84.26
2018-11-26T10:50:50.970Z,84.53
2018-11-26T10:53:19.199Z,84.29
2018-11-26T10:55:47.460Z,84.35
2018-11-26T10:58:15.707Z,83.59
2018-11-26T11:01:03.089Z,84.19
2018-11-26T11:03:31.335Z,84.05
2018-11-26T11:05:59.575Z,84.18
2018-11-26T11:08:47.238Z,84.31
2018-11-26T11:11:16.474Z,84.03
2018-11-26T11:13:43.821Z,84.03
2018-11-26T11:16:12.119Z,83.35
2018-11-26T11:18:40.318Z,84.01
2018-11-26T11:21:08.584Z,83.65
2018-11-26T11:23:36.817Z,84.03
2018-11-26T11:26:05.524Z,83.76
2018-11-26T11:28:33.864Z,82.74
2018-11-26T11:31:02.095Z,83.41
2018-11-26T11:33:30.353Z,83.91
2018-11-26T11:35:58.609Z,81.97
2018-11-26T11:38:26.862Z,82.65
2018-11-26T11:40:55.204Z,82.05
2018-11-26T11:43:23.491Z,81.06
2018-11-26T11:45:51.760Z,81.32
2018-11-26T11:48:20.052Z,80.58
2018-11-26T11:50:48.270Z,80.10
2018-11-26T11:53:16.633Z,80.97
2018-11-26T11:55:44.870Z,81.31
2018-11-26T11:58:13.117Z,80.44
2018-11-26T12:00:42.662Z,81.28
2018-11-26T12:03:30.339Z,81.32
2018-11-26T12:05:58.611Z,80.88
2018-11-26T12:08:26.881Z,80.47
2018-11-26T12:10:55.125Z,80.75
2018-11-26T12:13:23.370Z,80.56
2018-11-26T12:15:52.665Z,81.25
2018-11-26T12:18:21.012Z,80.43
2018-11-26T12:20:49.238Z,79.77
2018-11-26T12:23:17.574Z,79.69
2018-11-26T12:25:45.803Z,80.62
2018-11-26T12:28:14.047Z,80.59
2018-11-26T12:31:02.476Z,79.72
2018-11-26T12:33:30.751Z,79.67
2018-11-26T12:35:58.979Z,80.28
2018-11-26T12:38:27.222Z,80.62
2018-11-26T12:40:55.469Z,80.40
2018-11-26T12:43:23.742Z,81.19
2018-11-26T12:45:51.992Z,81.13
2018-11-26T12:48:20.255Z,81.04
2018-11-26T12:50:48.486Z,80.56
2018-11-26T12:53:16.790Z,80.61
2018-11-26T12:55:45.039Z,81.40
2018-11-26T12:58:13.372Z,81.23
2018-11-26T13:00:41.720Z,80.91
2018-11-26T13:03:29.339Z,81.34
2018-11-26T13:05:57.648Z,81.69
2018-11-26T13:08:25.828Z,81.35
2018-11-26T13:10:54.083Z,80.94
2018-11-26T13:13:22.309Z,80.53
2018-11-26T13:15:50.560Z,80.47
2018-11-26T13:18:18.780Z,80.70
2018-11-26T13:20:47.056Z,80.79
2018-11-26T13:23:15.333Z,80.78
2018-11-26T13:25:43.594Z,80.59
2018-11-26T13:28:11.844Z,80.82
2018-11-26T13:30:41.818Z,80.03
2018-11-26T13:33:14.566Z,80.73
2018-11-26T13:35:42.985Z,80.80
2018-11-26T13:38:11.211Z,80.15
2018-11-26T13:40:39.471Z,80.58
2018-11-26T13:43:09.110Z,81.50
2018-11-26T13:45:41.710Z,80.81
2018-11-26T13:48:11.085Z,80.83
2018-11-26T13:50:41.302Z,81.46
2018-11-26T13:53:09.532Z,80.63
2018-11-26T13:55:37.800Z,81.10
2018-11-26T13:58:06.031Z,81.42
2018-11-26T14:00:34.319Z,80.45
2018-11-26T14:03:02.533Z,80.57
2018-11-26T14:05:31.021Z,80.84
2018-11-26T14:07:59.260Z,81.38
2018-11-26T14:10:28.135Z,81.10
2018-11-26T14:13:16.140Z,80.59
2018-11-26T14:15:44.415Z,81.06
2018-11-26T14:18:12.633Z,80.72
2018-11-26T14:20:40.933Z,80.62
2018-11-26T14:23:09.162Z,80.77
2018-11-26T14:25:37.420Z,81.33
2018-11-26T14:28:06.284Z,80.87
2018-11-26T14:30:34.189Z,80.25
2018-11-26T14:33:02.418Z,81.09
2018-11-26T14:35:30.662Z,80.18
2018-11-26T14:38:18.365Z,80.29
2018-11-26T14:40:48.448Z,80.75
2018-11-26T14:43:16.724Z,80.62
2018-11-26T14:45:44.973Z,80.65
2018-11-26T14:48:13.270Z,80.97
2018-11-26T14:50:41.500Z,81.21
2018-11-26T14:53:11.778Z,81.00
2018-11-26T14:55:40.013Z,81.20
2018-11-26T14:58:08.264Z,80.86
2018-11-26T15:00:36.523Z,80.95
2018-11-26T15:03:05.084Z,81.37
2018-11-26T15:05:33.314Z,81.39
2018-11-26T15:08:01.581Z,81.03
2018-11-26T15:10:29.826Z,81.48
2018-11-26T15:12:58.067Z,81.44
2018-11-26T15:15:27.261Z,81.42
2018-11-26T15:17:55.519Z,80.72
2018-11-26T15:20:25.360Z,80.70
2018-11-26T15:22:54.629Z,81.00
2018-11-26T15:25:26.917Z,80.78
2018-11-26T15:28:14.645Z,80.88
2018-11-26T15:30:42.929Z,80.46
2018-11-26T15:33:11.180Z,80.71
2018-11-26T15:35:39.412Z,80.60
2018-11-26T15:38:07.935Z,80.19
2018-11-26T15:40:36.212Z,80.69
2018-11-26T15:43:04.564Z,80.75
2018-11-26T15:45:32.955Z,80.57
2018-11-26T15:48:02.744Z,80.37
2018-11-26T15:50:31.011Z,81.03
2018-11-26T15:52:59.262Z,80.66
2018-11-26T15:55:27.511Z,80.61
2018-11-26T15:57:55.788Z,80.71
2018-11-26T16:00:25.494Z,80.94
2018-11-26T16:02:53.924Z,80.57
2018-11-26T16:05:41.638Z,80.52
2018-11-26T16:08:14.247Z,80.41
2018-11-26T16:10:42.484Z,80.04
2018-11-26T16:13:12.987Z,80.26
2018-11-26T16:15:42.471Z,80.40
2018-11-26T16:18:29.971Z,80.12
2018-11-26T16:20:58.289Z,80.36
2018-11-26T16:23:26.538Z,80.41
2018-11-26T16:25:54.787Z,80.42
2018-11-26T16:28:23.988Z,80.47
2018-11-26T16:30:52.671Z,80.55
2018-11-26T16:33:20.979Z,80.08
2018-11-26T16:35:49.169Z,80.23
2018-11-26T16:38:17.488Z,80.45
2018-11-26T16:40:45.790Z,80.30
2018-11-26T16:43:14.021Z,80.54
2018-11-26T16:45:42.303Z,80.15
2018-11-26T16:48:10.566Z,80.27
2018-11-26T16:50:38.851Z,80.29
2018-11-26T16:53:07.805Z,80.86
2018-11-26T16:55:36.179Z,80.27
2018-11-26T16:58:04.832Z,80.84
2018-11-26T17:00:33.018Z,80.75
2018-11-26T17:03:02.034Z,80.97
2018-11-26T17:05:49.734Z,81.09
2018-11-26T17:08:17.971Z,80.80
2018-11-26T17:10:46.223Z,80.46
2018-11-26T17:13:14.903Z,80.59
2018-11-26T17:15:43.285Z,80.69
2018-11-26T17:18:11.507Z,80.22
2018-11-26T17:20:39.815Z,79.43
2018-11-26T17:23:08.395Z,79.74
2018-11-26T17:25:36.644Z,79.37
2018-11-26T17:28:04.903Z,79.67
2018-11-26T17:30:33.183Z,79.60
2018-11-26T17:33:02.855Z,80.30
2018-11-26T17:35:31.651Z,78.80
2018-11-26T17:37:59.937Z,78.72
2018-11-26T17:40:28.202Z,79.58
2018-11-26T17:42:56.682Z,78.58
2018-11-26T17:45:25.416Z,79.25
2018-11-26T17:47:55.008Z,78.54
2018-11-26T17:50:46.361Z,78.93
2018-11-26T17:53:18.876Z,78.94
2018-11-26T17:56:07.112Z,78.29
2018-11-26T17:58:35.367Z,77.24
2018-11-26T18:01:42.457Z,77.45
2018-11-26T18:04:10.835Z,77.55
2018-11-26T18:06:39.080Z,76.33
2018-11-26T18:09:26.756Z,76.94
2018-11-26T18:11:55.048Z,76.18
2018-11-26T18:14:23.306Z,75.84
2018-11-26T18:16:51.582Z,76.30
2018-11-26T18:19:19.800Z,77.10
2018-11-26T18:21:48.080Z,75.76
2018-11-26T18:24:16.316Z,74.20
2018-11-26T18:26:44.580Z,74.15
2018-11-26T18:29:12.810Z,74.30
2018-11-26T18:31:41.327Z,72.60
2018-11-26T18:34:09.638Z,72.35
2018-11-26T18:36:37.912Z,73.45
2018-11-26T18:39:09.260Z,73.90
2018-11-26T18:41:37.488Z,74.62
2018-11-26T18:44:06.538Z,74.98
2018-11-26T18:46:34.916Z,74.21
2018-11-26T18:49:03.181Z,73.36
2018-11-26T18:51:31.411Z,72.37
2018-11-26T18:53:59.685Z,73.16
2018-11-26T18:56:27.921Z,73.20
2018-11-26T18:58:56.191Z,72.42
2018-11-26T19:01:24.429Z,72.34
2018-11-26T19:03:52.679Z,73.02
2018-11-26T19:06:20.970Z,74.07
2018-11-26T19:08:49.228Z,72.05
2018-11-26T19:11:18.425Z,71.92
2018-11-26T19:14:07.461Z,72.70
2018-11-26T19:16:37.887Z,73.99
2018-11-26T19:19:06.408Z,72.48
2018-11-26T19:21:34.648Z,74.34
2018-11-26T19:24:02.926Z,74.00
2018-11-26T19:26:31.145Z,73.21
2018-11-26T19:28:59.396Z,73.77
2018-11-26T19:31:27.655Z,72.51
2018-11-26T19:33:55.959Z,74.07
2018-11-26T19:36:24.203Z,73.92
2018-11-26T19:38:52.477Z,72.87
2018-11-26T19:41:20.700Z,73.32
2018-11-26T19:43:48.947Z,71.62
2018-11-26T19:46:17.177Z,72.33
2018-11-26T19:48:45.468Z,73.13
2018-11-26T19:51:13.721Z,73.14
2018-11-26T19:53:41.973Z,71.91
2018-11-26T19:56:10.280Z,72.01
2018-11-26T19:58:38.525Z,71.69
2018-11-26T20:01:06.797Z,73.94
2018-11-26T20:03:37.510Z,72.74
2018-11-26T20:06:25.402Z,73.00
2018-11-26T20:09:13.087Z,73.04
2018-11-26T20:11:41.371Z,74.51
2018-11-26T20:14:09.618Z,74.89
2018-11-26T20:16:40.352Z,75.38
2018-11-26T20:19:08.617Z,75.49
2018-11-26T20:21:36.874Z,75.31
2018-11-26T20:24:05.212Z,74.01
2018-11-26T20:26:33.426Z,75.03
2018-11-26T20:29:01.674Z,75.50
2018-11-26T20:31:29.972Z,77.03
2018-11-26T20:33:58.192Z,78.03
2018-11-26T20:36:26.466Z,78.78
2018-11-26T20:38:54.724Z,78.51
2018-11-26T20:41:22.984Z,79.36
2018-11-26T20:43:51.293Z,79.45
2018-11-26T20:46:19.512Z,79.24
2018-11-26T20:48:47.762Z,79.66
2018-11-26T20:51:16.083Z,79.13
2018-11-26T20:53:44.268Z,79.59
2018-11-26T20:56:16.981Z,79.50
2018-11-26T20:58:46.141Z,79.13
2018-11-26T21:01:14.544Z,78.71
2018-11-26T21:03:42.803Z,78.36
2018-11-26T21:06:11.805Z,78.39
2018-11-26T21:08:39.288Z,78.48
2018-11-26T21:11:07.582Z,79.13
2018-11-26T21:13:35.804Z,79.66
2018-11-26T21:16:04.107Z,79.79
2018-11-26T21:18:32.357Z,79.32
2018-11-26T21:21:00.627Z,79.07
2018-11-26T21:23:48.341Z,78.96
2018-11-26T21:26:16.618Z,78.91
2018-11-26T21:28:44.865Z,79.00
2018-11-26T21:31:13.156Z,79.20
2018-11-26T21:33:41.409Z,79.51
2018-11-26T21:36:09.645Z,79.48
2018-11-26T21:38:39.684Z,79.83
2018-11-26T21:41:08.049Z,79.79
2018-11-26T21:43:36.302Z,80.38
2018-11-26T21:46:04.867Z,79.90
2018-11-26T21:48:33.129Z,80.22
2018-11-26T21:51:01.409Z,80.63
2018-11-26T21:53:29.669Z,80.95
2018-11-26T21:55:57.908Z,80.94
2018-11-26T21:58:26.153Z,80.51
2018-11-26T22:00:56.049Z,80.73
2018-11-26T22:03:24.326Z,80.81
2018-11-26T22:05:52.599Z,81.25
2018-11-26T22:08:20.839Z,80.89
2018-11-26T22:10:49.144Z,81.09
2018-11-26T22:13:19.218Z,80.61
2018-11-26T22:15:47.510Z,80.32
2018-11-26T22:18:15.782Z,80.78
2018-11-26T22:20:44.031Z,80.90
2018-11-26T22:23:12.355Z,81.29
2018-11-26T22:25:40.608Z,81.46
2018-11-26T22:28:10.164Z,81.22
2018-11-26T22:30:39.109Z,81.68
2018-11-26T22:33:07.555Z,82.09
2018-11-26T22:35:35.830Z,82.30
2018-11-26T22:38:04.046Z,82.39
2018-11-26T22:40:32.320Z,81.98
2018-11-26T22:43:00.543Z,82.14
2018-11-26T22:45:48.637Z,81.87
2018-11-26T22:48:16.888Z,82.07
2018-11-26T22:50:45.704Z,81.82
2018-11-26T22:53:13.925Z,81.35
2018-11-26T22:55:42.173Z,81.47
2018-11-26T22:58:29.828Z,82.65
2018-11-26T23:00:58.111Z,82.40
2018-11-26T23:03:27.002Z,82.35
2018-11-26T23:05:55.251Z,82.09
2018-11-26T23:08:23.480Z,81.90
2018-11-26T23:10:51.733Z,81.68
2018-11-26T23:13:19.958Z,82.34
2018-11-26T23:15:48.220Z,82.25
2018-11-26T23:18:16.498Z,82.72
2018-11-26T23:20:44.772Z,82.72
2018-11-26T23:23:12.997Z,82.95
2018-11-26T23:25:41.240Z,82.67
2018-11-26T23:28:09.465Z,83.27
2018-11-26T23:30:37.708Z,83.57
2018-11-26T23:33:06.930Z,83.72
2018-11-26T23:35:35.210Z,83.33
2018-11-26T23:38:03.438Z,83.68
2018-11-26T23:40:31.686Z,83.78
2018-11-26T23:42:59.917Z,83.89
2018-11-26T23:45:29.088Z,84.05
2018-11-26T23:47:57.312Z,84.38
2018-11-26T23:50:25.563Z,84.37
2018-11-26T23:52:53.785Z,84.92
2018-11-26T23:55:23.140Z,84.48
2018-11-26T23:57:51.368Z,85.03
